Main page
METAR-TAF:

METAR-TAF

Airports :

Hawarden Airport

Hawarden, Wales

latitude: 53-10N, longitude: 002-59W, elevation: 10 m

Current weather observation

The report was made 4 hours and 4 minutes ago, at 19:50 UTC
Wind 5 kt from the West, varying between Southwest and Northwest
Temperature 16°C
Humidity 59%
Pressure 1014 hPa
Visibility 10 km or more
Few clouds at a height of 2400 ft

METAR: EGNR 251950Z 27005KT 230V320 9999 FEW024 16/08 Q1014

Time: 00:54 (23:54 UTC)

Forecast

The report was made 6 hours and 52 minutes ago, at 17:02 UTC
Forecast valid from 25 at 18 UTC to 25 at 20 UTC
Wind 12 kt from the West
Visibility 10 km or more
Few clouds at a height of 2500 ft
Scattered clouds at a height of 4000 ft

TAF: EGNR 251702Z 2518/2520 28012KT 9999 FEW025 SCT040

Weather observations and forecasts of more than 4000 airports (METAR and TAF reports).

The available stations are represented by yellow and red dots on the map.

Hover mouse over dot to see the name of the station.

Then click to see weather observations and forecasts.

To change the map : click on the green buttons with a black cross to zoom in, on the green button with a dash to zoom out, or on the green arrows for adjacent maps.


METAR-TAF: